createdAt,value
2022-11-07T00:02:40.184Z,99521.14
2022-11-07T00:12:46.014Z,99514.88
2022-11-07T00:22:51.689Z,99510.73
2022-11-07T00:33:00.213Z,99514.84
2022-11-07T00:43:06.125Z,99519.77
2022-11-07T00:53:12.019Z,99508.73
2022-11-07T01:03:35.184Z,99489.25
2022-11-07T01:13:41.415Z,99469.30
2022-11-07T01:23:47.098Z,99461.59
2022-11-07T01:33:52.721Z,99443.70
2022-11-07T01:44:01.754Z,99429.31
2022-11-07T01:54:08.374Z,99412.27
2022-11-07T02:04:15.099Z,99397.80
2022-11-07T02:14:20.928Z,99391.11
2022-11-07T02:24:31.393Z,99382.15
2022-11-07T02:34:36.991Z,99375.99
2022-11-07T02:44:42.560Z,99365.67
2022-11-07T02:54:48.103Z,99353.61
2022-11-07T03:04:53.910Z,99346.60
2022-11-07T03:14:59.497Z,99349.07
2022-11-07T03:25:05.605Z,99351.91
2022-11-07T03:35:12.287Z,99360.40
2022-11-07T03:45:18.708Z,99359.95
2022-11-07T03:55:24.351Z,99352.89
2022-11-07T04:05:30.416Z,99323.53
2022-11-07T04:15:53.710Z,99314.14
2022-11-07T04:26:17.079Z,99319.79
2022-11-07T04:36:22.712Z,99319.05
2022-11-07T04:46:28.292Z,99312.28
2022-11-07T04:56:34.665Z,99311.41
2022-11-07T05:06:40.428Z,99310.21
2022-11-07T05:16:46.237Z,99308.70
2022-11-07T05:26:51.958Z,99311.89
2022-11-07T05:36:57.540Z,99311.31
2022-11-07T05:47:03.064Z,99310.14
2022-11-07T05:57:08.647Z,99324.73
2022-11-07T06:07:14.209Z,99332.28
2022-11-07T06:17:19.758Z,99336.91
2022-11-07T06:27:25.403Z,99338.38
2022-11-07T06:37:30.991Z,99350.10
2022-11-07T06:47:36.583Z,99352.45
2022-11-07T06:57:42.127Z,99360.98
2022-11-07T07:07:47.894Z,99361.60
2022-11-07T07:17:53.472Z,99363.92
2022-11-07T07:27:59.040Z,99360.61
2022-11-07T07:38:04.604Z,99359.97
2022-11-07T07:48:10.653Z,99354.04
2022-11-07T07:58:16.611Z,99347.56
2022-11-07T08:08:22.279Z,99355.81
2022-11-07T08:18:28.009Z,99369.98
2022-11-07T08:28:35.466Z,99379.42
2022-11-07T08:38:41.133Z,99382.88
2022-11-07T08:48:46.683Z,99383.66
2022-11-07T08:58:52.665Z,99381.10
2022-11-07T09:08:58.264Z,99393.33
2022-11-07T09:19:04.046Z,99395.22
2022-11-07T09:29:36.574Z,99395.30
2022-11-07T09:39:42.342Z,99393.69
2022-11-07T09:49:51.214Z,99398.06
2022-11-07T09:59:59.928Z,99399.42
2022-11-07T10:10:14.910Z,99403.45
2022-11-07T10:20:33.486Z,99395.05
2022-11-07T10:30:39.344Z,99393.34
2022-11-07T10:40:47.102Z,99400.38
2022-11-07T10:50:56.498Z,99396.17
2022-11-07T11:01:08.074Z,99389.11
2022-11-07T11:11:29.282Z,99391.08
2022-11-07T11:21:46.649Z,99392.80
2022-11-07T11:31:56.525Z,99399.41
2022-11-07T11:42:05.003Z,99406.23
2022-11-07T11:52:16.589Z,99412.08
2022-11-07T12:02:42.277Z,99409.32
2022-11-07T12:13:02.683Z,99411.02
2022-11-07T12:23:26.543Z,99415.73
2022-11-07T12:33:38.215Z,99418.79
2022-11-07T12:43:56.248Z,99422.39
2022-11-07T12:54:16.215Z,99418.63
2022-11-07T13:04:29.571Z,99424.61
2022-11-07T13:14:39.102Z,99436.61
2022-11-07T13:24:54.593Z,99441.16
2022-11-07T13:35:02.905Z,99445.70
2022-11-07T13:45:25.662Z,99456.98
2022-11-07T13:55:42.451Z,99459.79
2022-11-07T14:05:50.376Z,99469.77
2022-11-07T14:15:55.751Z,99477.80
2022-11-07T14:26:03.570Z,99471.77
2022-11-07T14:36:13.285Z,99477.92
2022-11-07T14:46:24.006Z,99483.95
2022-11-07T14:56:33.936Z,99483.88
2022-11-07T15:06:46.139Z,99489.19
2022-11-07T15:16:53.177Z,99486.55
2022-11-07T15:27:03.474Z,99490.94
2022-11-07T15:37:15.967Z,99499.25
2022-11-07T15:47:23.324Z,99509.11
2022-11-07T15:57:29.054Z,99509.02
2022-11-07T16:07:34.905Z,99506.79
2022-11-07T16:17:40.590Z,99511.11
2022-11-07T16:27:51.346Z,99519.33
2022-11-07T16:37:59.845Z,99520.84
2022-11-07T16:48:06.345Z,99529.27
2022-11-07T16:58:25.268Z,99532.02
2022-11-07T17:08:37.336Z,99533.02
2022-11-07T17:18:43.264Z,99530.02
2022-11-07T17:28:48.914Z,99519.05
2022-11-07T17:38:54.819Z,99520.55
2022-11-07T17:49:03.401Z,99520.43
2022-11-07T17:59:12.893Z,99518.89
2022-11-07T18:09:18.577Z,99513.41
2022-11-07T18:19:24.179Z,99519.30
2022-11-07T18:29:30.125Z,99521.98
2022-11-07T18:39:35.898Z,99525.94
2022-11-07T18:49:41.536Z,99533.28
2022-11-07T18:59:47.489Z,99533.75
2022-11-07T19:09:53.058Z,99534.86
2022-11-07T19:19:58.666Z,99534.14
2022-11-07T19:30:04.420Z,99534.18
2022-11-07T19:40:12.006Z,99543.40
2022-11-07T19:50:17.791Z,99551.01
2022-11-07T20:00:26.006Z,99562.98
2022-11-07T20:10:31.755Z,99567.94
2022-11-07T20:20:37.495Z,99567.86
2022-11-07T20:30:44.535Z,99568.08
2022-11-07T20:40:50.495Z,99575.59
2022-11-07T20:51:12.512Z,99567.73
2022-11-07T21:01:21.183Z,99568.54
2022-11-07T21:11:27.373Z,99567.94
2022-11-07T21:21:34.584Z,99567.66
2022-11-07T21:31:42.096Z,99566.61
2022-11-07T21:41:47.805Z,99571.55
2022-11-07T21:51:54.044Z,99575.73
2022-11-07T22:01:59.975Z,99575.63
2022-11-07T22:12:06.040Z,99576.23
2022-11-07T22:22:11.711Z,99578.15
2022-11-07T22:32:17.307Z,99571.38
2022-11-07T22:42:23.989Z,99569.59
2022-11-07T22:52:29.691Z,99573.58
2022-11-07T23:02:35.594Z,99585.07
2022-11-07T23:12:41.346Z,99580.39
2022-11-07T23:22:47.123Z,99577.23
2022-11-07T23:32:52.699Z,99577.23
2022-11-07T23:42:58.326Z,99574.58
2022-11-07T23:53:24.793Z,99572.98
